createdAt,value
2023-02-06T00:01:08.841Z,100.00
2023-02-06T00:04:30.657Z,100.00
2023-02-06T00:07:52.493Z,100.00
2023-02-06T00:11:18.078Z,100.00
2023-02-06T00:14:39.646Z,100.00
2023-02-06T00:18:01.873Z,100.00
2023-02-06T00:21:26.031Z,100.00
2023-02-06T00:24:48.326Z,100.00
2023-02-06T00:28:11.951Z,100.00
2023-02-06T00:31:34.005Z,100.00
2023-02-06T00:34:55.972Z,100.00
2023-02-06T00:38:18.096Z,100.00
2023-02-06T00:41:39.736Z,100.00
2023-02-06T00:45:03.067Z,100.00
2023-02-06T00:48:25.328Z,100.00
2023-02-06T00:51:47.247Z,100.00
2023-02-06T00:55:09.334Z,100.00
2023-02-06T00:58:31.496Z,100.00
2023-02-06T01:01:54.738Z,100.00
2023-02-06T01:05:16.813Z,100.00
2023-02-06T01:08:38.694Z,100.00
2023-02-06T01:12:00.709Z,100.00
2023-02-06T01:15:22.741Z,100.00
2023-02-06T01:18:45.996Z,100.00
2023-02-06T01:22:08.299Z,100.00
2023-02-06T01:25:30.870Z,100.00
2023-02-06T01:28:52.732Z,100.00
2023-02-06T01:32:15.005Z,100.00
2023-02-06T01:35:38.331Z,100.00
2023-02-06T01:39:00.424Z,100.00
2023-02-06T01:42:22.328Z,100.00
2023-02-06T01:45:46.393Z,100.00
2023-02-06T01:49:11.766Z,100.00
2023-02-06T01:52:35.090Z,100.00
2023-02-06T01:56:01.234Z,100.00
2023-02-06T01:59:24.430Z,100.00
2023-02-06T02:02:49.685Z,100.00
2023-02-06T02:06:14.179Z,100.00
2023-02-06T02:09:38.307Z,100.00
2023-02-06T02:13:00.477Z,100.00
2023-02-06T02:16:28.246Z,100.00
2023-02-06T02:20:29.156Z,100.00
2023-02-06T02:23:58.416Z,100.00
2023-02-06T02:27:44.790Z,100.00
2023-02-06T02:31:28.704Z,100.00
2023-02-06T02:35:07.945Z,100.00
2023-02-06T02:38:42.772Z,100.00
2023-02-06T02:42:13.063Z,100.00
2023-02-06T02:45:41.713Z,100.00
2023-02-06T02:49:08.543Z,100.00
2023-02-06T02:52:31.664Z,100.00
2023-02-06T02:55:53.898Z,100.00
2023-02-06T02:59:23.884Z,100.00
2023-02-06T03:02:48.275Z,100.00
2023-02-06T03:06:28.186Z,100.00
2023-02-06T03:10:01.971Z,100.00
2023-02-06T03:13:31.086Z,100.00
2023-02-06T03:16:59.739Z,100.00
2023-02-06T03:20:23.071Z,100.00
2023-02-06T03:23:48.429Z,100.00
2023-02-06T03:27:15.228Z,100.00
2023-02-06T03:30:40.131Z,100.00
2023-02-06T03:34:08.472Z,100.00
2023-02-06T03:37:31.163Z,100.00
2023-02-06T03:40:56.057Z,100.00
2023-02-06T03:44:23.657Z,100.00
2023-02-06T03:47:48.009Z,100.00
2023-02-06T03:51:13.634Z,100.00
2023-02-06T03:54:40.562Z,100.00
2023-02-06T03:58:06.511Z,100.00
2023-02-06T04:01:30.378Z,100.00
2023-02-06T04:04:52.575Z,100.00
2023-02-06T04:08:14.655Z,100.00
2023-02-06T04:11:36.654Z,100.00
2023-02-06T04:14:58.550Z,100.00
2023-02-06T04:18:21.709Z,100.00
2023-02-06T04:21:43.845Z,100.00
2023-02-06T04:25:05.956Z,100.00
2023-02-06T04:28:28.279Z,100.00
2023-02-06T04:31:50.261Z,100.00
2023-02-06T04:35:13.665Z,100.00
2023-02-06T04:38:35.373Z,100.00
2023-02-06T04:41:57.582Z,100.00
2023-02-06T04:45:19.414Z,100.00
2023-02-06T04:48:41.145Z,100.00
2023-02-06T04:52:04.526Z,100.00
2023-02-06T04:55:26.376Z,100.00
2023-02-06T04:58:48.707Z,100.00
2023-02-06T05:02:10.568Z,100.00
2023-02-06T05:05:32.547Z,100.00
2023-02-06T05:08:55.860Z,100.00
2023-02-06T05:12:18.300Z,100.00
2023-02-06T05:15:40.826Z,100.00
2023-02-06T05:19:02.931Z,100.00
2023-02-06T05:22:24.815Z,100.00
2023-02-06T05:25:49.392Z,100.00
2023-02-06T05:29:11.181Z,100.00
2023-02-06T05:32:33.324Z,100.00
2023-02-06T05:35:55.123Z,100.00
2023-02-06T05:39:17.044Z,100.00
2023-02-06T05:42:40.501Z,100.00
2023-02-06T05:46:03.161Z,100.00
2023-02-06T05:49:25.037Z,100.00
2023-02-06T05:52:47.033Z,100.00
2023-02-06T05:56:09.161Z,100.00
2023-02-06T05:59:32.361Z,100.00
2023-02-06T06:02:54.599Z,100.00
2023-02-06T06:06:16.472Z,100.00
2023-02-06T06:09:38.609Z,100.00
2023-02-06T06:13:00.717Z,100.00
2023-02-06T06:16:24.195Z,100.00
2023-02-06T06:19:46.227Z,100.00
2023-02-06T06:23:09.475Z,100.00
2023-02-06T06:26:31.740Z,100.00
2023-02-06T06:29:53.888Z,100.00
2023-02-06T06:33:17.976Z,100.00
2023-02-06T06:36:40.145Z,100.00
2023-02-06T06:40:02.088Z,100.00
2023-02-06T06:43:25.948Z,100.00
2023-02-06T06:46:48.045Z,100.00
2023-02-06T06:50:11.623Z,100.00
2023-02-06T06:53:33.708Z,100.00
2023-02-06T06:56:55.718Z,100.00
2023-02-06T07:00:18.147Z,100.00
2023-02-06T07:03:40.051Z,100.00
2023-02-06T07:07:03.402Z,100.00
2023-02-06T07:10:25.215Z,100.00
2023-02-06T07:13:47.269Z,100.00
2023-02-06T07:17:09.309Z,100.00
2023-02-06T07:20:31.034Z,100.00
2023-02-06T07:23:54.408Z,100.00
2023-02-06T07:27:16.727Z,100.00
2023-02-06T07:30:38.962Z,100.00
2023-02-06T07:34:02.393Z,100.00
2023-02-06T07:37:24.309Z,100.00
2023-02-06T07:40:47.624Z,100.00
2023-02-06T07:44:09.151Z,100.00
2023-02-06T07:47:30.990Z,100.00
2023-02-06T07:50:53.104Z,100.00
2023-02-06T07:54:15.197Z,100.00
2023-02-06T07:57:38.612Z,100.00
2023-02-06T08:01:05.319Z,100.00
2023-02-06T08:04:29.490Z,100.00
2023-02-06T08:07:52.095Z,100.00
2023-02-06T08:11:15.761Z,100.00
2023-02-06T08:14:39.212Z,100.00
2023-02-06T08:18:01.381Z,100.00
2023-02-06T08:21:25.588Z,100.00
2023-02-06T08:24:48.296Z,100.00
2023-02-06T08:28:10.291Z,100.00
2023-02-06T08:31:36.099Z,100.00
2023-02-06T08:34:57.832Z,100.00
2023-02-06T08:38:19.732Z,100.00
2023-02-06T08:41:43.677Z,100.00
2023-02-06T08:45:06.639Z,100.00
2023-02-06T08:48:29.901Z,100.00
2023-02-06T08:51:51.690Z,100.00
2023-02-06T08:55:13.521Z,100.00
2023-02-06T08:58:36.071Z,99.79
2023-02-06T09:01:57.958Z,99.76
2023-02-06T09:05:21.615Z,99.87
2023-02-06T09:08:44.789Z,99.52
2023-02-06T09:12:07.015Z,99.36
2023-02-06T09:15:29.221Z,99.70
2023-02-06T09:18:54.195Z,99.32
2023-02-06T09:22:18.665Z,98.30
2023-02-06T09:25:40.672Z,98.76
2023-02-06T09:29:05.658Z,98.60
2023-02-06T09:32:27.380Z,98.99
2023-02-06T09:35:49.575Z,99.79
2023-02-06T09:39:13.112Z,100.00
2023-02-06T09:42:39.885Z,100.00
2023-02-06T09:46:06.503Z,100.00
2023-02-06T09:49:36.925Z,100.00
2023-02-06T09:53:07.654Z,100.00
2023-02-06T09:56:39.857Z,98.58
2023-02-06T10:00:07.443Z,98.74
2023-02-06T10:03:43.079Z,96.90
2023-02-06T10:07:18.861Z,96.91
2023-02-06T10:10:44.995Z,97.43
2023-02-06T10:14:19.197Z,96.36
2023-02-06T10:17:53.618Z,96.39
2023-02-06T10:21:26.931Z,96.36
2023-02-06T10:24:59.089Z,95.83
2023-02-06T10:28:27.045Z,95.71
2023-02-06T10:32:09.773Z,96.28
2023-02-06T10:35:41.950Z,96.57
2023-02-06T10:39:36.842Z,95.31
2023-02-06T10:43:04.567Z,95.23
2023-02-06T10:46:38.878Z,95.39
2023-02-06T10:50:12.308Z,94.98
2023-02-06T10:53:37.446Z,94.19
2023-02-06T10:57:01.066Z,94.29
2023-02-06T11:00:26.175Z,94.86
2023-02-06T11:03:53.799Z,93.85
2023-02-06T11:07:22.760Z,94.01
2023-02-06T11:10:46.516Z,93.92
2023-02-06T11:14:15.369Z,94.48
2023-02-06T11:17:37.410Z,93.06
2023-02-06T11:20:59.830Z,92.32
2023-02-06T11:24:24.636Z,92.53
2023-02-06T11:27:47.018Z,93.15
2023-02-06T11:31:10.577Z,92.29
2023-02-06T11:34:35.757Z,91.79
2023-02-06T11:38:09.413Z,92.22
2023-02-06T11:41:33.822Z,92.31
2023-02-06T11:44:55.905Z,92.00
2023-02-06T11:48:33.539Z,93.75
2023-02-06T11:51:56.839Z,91.85
2023-02-06T11:55:23.632Z,92.74
2023-02-06T11:58:47.253Z,92.38
2023-02-06T12:02:28.153Z,92.16
2023-02-06T12:05:50.184Z,92.71
2023-02-06T12:09:13.737Z,92.77
2023-02-06T12:12:40.195Z,92.75
2023-02-06T12:16:07.061Z,92.86
2023-02-06T12:19:33.818Z,93.42
2023-02-06T12:22:58.821Z,92.89
2023-02-06T12:26:23.623Z,92.84
2023-02-06T12:29:50.399Z,93.42
2023-02-06T12:33:18.586Z,93.47
2023-02-06T12:36:53.524Z,93.04
2023-02-06T12:40:26.454Z,93.18
2023-02-06T12:43:54.760Z,92.71
2023-02-06T12:47:23.796Z,92.30
2023-02-06T12:50:51.314Z,93.14
2023-02-06T12:54:18.886Z,92.76
2023-02-06T12:57:41.510Z,93.13
2023-02-06T13:01:29.970Z,93.92
2023-02-06T13:04:55.424Z,93.71
2023-02-06T13:08:22.411Z,93.78
2023-02-06T13:11:45.070Z,94.12
2023-02-06T13:15:09.653Z,93.97
2023-02-06T13:19:02.923Z,93.49
2023-02-06T13:22:46.859Z,93.25
2023-02-06T13:26:10.348Z,94.24
2023-02-06T13:29:34.995Z,94.70
2023-02-06T13:32:58.045Z,94.77
2023-02-06T13:36:26.941Z,94.65
2023-02-06T13:39:50.418Z,95.98
2023-02-06T13:43:20.510Z,95.55
2023-02-06T13:47:22.738Z,95.51
2023-02-06T13:50:59.604Z,95.82
2023-02-06T13:54:35.834Z,96.46
2023-02-06T13:58:20.993Z,95.79
2023-02-06T14:01:43.046Z,95.48
2023-02-06T14:05:07.483Z,96.37
2023-02-06T14:08:45.038Z,96.70
2023-02-06T14:12:34.412Z,96.92
2023-02-06T14:16:06.145Z,96.66
2023-02-06T14:19:35.803Z,96.73
2023-02-06T14:23:10.884Z,96.63
2023-02-06T14:26:42.363Z,97.04
2023-02-06T14:30:19.945Z,96.65
2023-02-06T14:33:55.836Z,96.40
2023-02-06T14:37:37.620Z,96.19
2023-02-06T14:41:02.040Z,96.41
2023-02-06T14:44:28.435Z,97.26
2023-02-06T14:47:54.604Z,96.92
2023-02-06T14:51:25.079Z,97.06
2023-02-06T14:54:46.821Z,97.01
2023-02-06T14:58:20.893Z,96.63
2023-02-06T15:01:44.050Z,97.32
2023-02-06T15:05:07.258Z,96.74
2023-02-06T15:08:32.569Z,97.32
2023-02-06T15:11:57.476Z,97.14
2023-02-06T15:15:21.530Z,97.34
2023-02-06T15:18:43.425Z,97.05
2023-02-06T15:22:08.146Z,97.18
2023-02-06T15:25:41.532Z,97.16
2023-02-06T15:29:06.464Z,97.35
2023-02-06T15:32:30.798Z,97.42
2023-02-06T15:35:54.455Z,97.96
2023-02-06T15:39:17.985Z,97.55
2023-02-06T15:42:41.725Z,98.10
2023-02-06T15:46:06.816Z,98.42
2023-02-06T15:49:38.239Z,98.61
2023-02-06T15:53:00.895Z,98.53
2023-02-06T15:56:27.488Z,98.47
2023-02-06T15:59:50.890Z,98.28
2023-02-06T16:03:20.078Z,98.10
2023-02-06T16:06:42.294Z,98.03
2023-02-06T16:10:22.378Z,98.90
2023-02-06T16:13:47.265Z,98.77
2023-02-06T16:17:26.794Z,98.77
2023-02-06T16:20:49.407Z,98.78
2023-02-06T16:24:17.638Z,98.61
2023-02-06T16:27:45.303Z,98.75
2023-02-06T16:31:07.276Z,98.69
2023-02-06T16:34:42.427Z,98.84
2023-02-06T16:38:04.182Z,99.41
2023-02-06T16:41:33.073Z,99.59
2023-02-06T16:44:59.865Z,99.93
2023-02-06T16:48:21.890Z,99.75
2023-02-06T16:51:46.723Z,100.00
2023-02-06T16:55:17.590Z,100.00
2023-02-06T16:58:39.636Z,100.00
2023-02-06T17:02:01.612Z,100.00
2023-02-06T17:05:25.458Z,100.00
2023-02-06T17:08:49.339Z,100.00
2023-02-06T17:12:15.332Z,100.00
2023-02-06T17:15:37.934Z,100.00
2023-02-06T17:18:59.697Z,100.00
2023-02-06T17:22:21.577Z,100.00
2023-02-06T17:25:45.986Z,100.00
2023-02-06T17:29:07.682Z,100.00
2023-02-06T17:32:29.438Z,100.00
2023-02-06T17:35:51.636Z,100.00
2023-02-06T17:39:14.088Z,100.00
2023-02-06T17:42:37.169Z,99.58
2023-02-06T17:45:59.190Z,99.83
2023-02-06T17:49:21.072Z,99.73
2023-02-06T17:52:43.057Z,99.87
2023-02-06T17:56:06.986Z,100.00
2023-02-06T17:59:30.270Z,100.00
2023-02-06T18:02:52.984Z,100.00
2023-02-06T18:06:15.544Z,100.00
2023-02-06T18:09:38.137Z,100.00
2023-02-06T18:13:02.237Z,100.00
2023-02-06T18:16:28.206Z,100.00
2023-02-06T18:19:50.835Z,100.00
2023-02-06T18:23:13.428Z,100.00
2023-02-06T18:26:35.866Z,100.00
2023-02-06T18:29:57.664Z,100.00
2023-02-06T18:33:21.083Z,100.00
2023-02-06T18:36:43.381Z,100.00
2023-02-06T18:40:06.036Z,100.00
2023-02-06T18:43:29.335Z,100.00
2023-02-06T18:46:51.878Z,100.00
2023-02-06T18:50:17.654Z,100.00
2023-02-06T18:53:39.428Z,100.00
2023-02-06T18:57:01.738Z,100.00
2023-02-06T19:00:24.910Z,100.00
2023-02-06T19:03:47.372Z,99.71
2023-02-06T19:07:11.847Z,99.54
2023-02-06T19:10:33.728Z,99.71
2023-02-06T19:13:56.258Z,99.29
2023-02-06T19:17:18.189Z,99.64
2023-02-06T19:20:42.706Z,99.69
2023-02-06T19:24:06.831Z,99.44
2023-02-06T19:27:28.873Z,99.51
2023-02-06T19:30:51.208Z,99.71
2023-02-06T19:34:13.216Z,99.91
2023-02-06T19:37:35.285Z,100.00
2023-02-06T19:40:58.508Z,100.00
2023-02-06T19:44:20.464Z,100.00
2023-02-06T19:47:43.244Z,100.00
2023-02-06T19:51:06.957Z,100.00
2023-02-06T19:54:29.477Z,100.00
2023-02-06T19:57:53.903Z,100.00
2023-02-06T20:01:17.868Z,100.00
2023-02-06T20:04:40.682Z,100.00
2023-02-06T20:08:02.577Z,99.76
2023-02-06T20:11:24.562Z,99.41
2023-02-06T20:14:48.072Z,98.94
2023-02-06T20:18:09.823Z,98.39
2023-02-06T20:21:34.321Z,98.28
2023-02-06T20:24:56.410Z,98.15
2023-02-06T20:28:18.701Z,97.93
2023-02-06T20:31:42.256Z,97.65
2023-02-06T20:35:04.315Z,97.49
2023-02-06T20:38:26.322Z,96.92
2023-02-06T20:41:49.641Z,97.28
2023-02-06T20:45:12.548Z,97.04
2023-02-06T20:48:36.695Z,96.77
2023-02-06T20:51:58.547Z,96.99
2023-02-06T20:55:20.557Z,96.52
2023-02-06T20:58:43.128Z,95.65
2023-02-06T21:02:05.179Z,96.07
2023-02-06T21:05:28.824Z,96.68
2023-02-06T21:08:52.972Z,97.01
2023-02-06T21:12:14.984Z,96.79
2023-02-06T21:15:37.198Z,96.17
2023-02-06T21:19:00.236Z,96.49
2023-02-06T21:22:23.791Z,97.18
2023-02-06T21:25:52.212Z,97.21
2023-02-06T21:29:16.042Z,96.97
2023-02-06T21:32:38.080Z,96.27
2023-02-06T21:36:00.035Z,96.39
2023-02-06T21:39:27.275Z,96.84
2023-02-06T21:42:49.491Z,96.10
2023-02-06T21:46:13.044Z,97.22
2023-02-06T21:49:35.368Z,97.37
2023-02-06T21:52:57.460Z,97.89
2023-02-06T21:56:23.515Z,97.83
2023-02-06T21:59:45.486Z,98.46
2023-02-06T22:03:07.547Z,98.60
2023-02-06T22:06:29.874Z,98.37
2023-02-06T22:09:52.006Z,98.86
2023-02-06T22:13:15.508Z,99.26
2023-02-06T22:16:37.715Z,98.41
2023-02-06T22:19:59.805Z,98.72
2023-02-06T22:23:21.654Z,98.68
2023-02-06T22:26:44.435Z,98.51
2023-02-06T22:30:09.095Z,99.17
2023-02-06T22:33:30.761Z,98.69
2023-02-06T22:36:52.854Z,99.13
2023-02-06T22:40:14.730Z,99.56
2023-02-06T22:43:38.786Z,99.17
2023-02-06T22:47:02.309Z,99.58
2023-02-06T22:50:24.802Z,99.23
2023-02-06T22:53:46.802Z,99.33
2023-02-06T22:57:08.651Z,99.21
2023-02-06T23:00:30.772Z,99.60
2023-02-06T23:03:58.247Z,99.95
2023-02-06T23:07:21.210Z,100.00
2023-02-06T23:10:50.235Z,99.70
2023-02-06T23:14:15.117Z,99.59
2023-02-06T23:17:38.494Z,99.10
2023-02-06T23:21:05.955Z,99.40
2023-02-06T23:24:28.913Z,99.60
2023-02-06T23:27:51.687Z,99.33
2023-02-06T23:31:16.859Z,99.26
2023-02-06T23:34:40.128Z,99.20
2023-02-06T23:38:04.948Z,99.45
2023-02-06T23:41:30.582Z,99.93
2023-02-06T23:44:53.121Z,100.00
2023-02-06T23:48:15.811Z,100.00
2023-02-06T23:51:39.850Z,100.00
2023-02-06T23:55:04.458Z,100.00
2023-02-06T23:58:28.644Z,100.00
